Welkom op de weersite van Veghel e.o.

Het is weer maart en dat betekend weer Lente.

Echter na de warme februari.

Nu weer onstuimig en regenachtig.

Het gezegde "maart roert zijn staart" is weer actueel.




Webcam Veghel  Webcam Veghel


Onweer radar Meer informatie blitzortung!


Regen radar Meer informatie rain snow radar


U vindt ons ook hier:

Het Weer Aktueel

European Weather Network

Weather Underground

Benelux Weer Netwerk

AWEKAS


Het weer levert geen direct gevaar op.    Er zijn geen waarschuwingen afgegeven.

METAR rapporten vliegvelden

   
EHAM - Amsterdam
Gewijzigd: 19-05-2019 22:55
Nevel, Bewolking  
Nevel, Bewolking  
   Wind: NNW 14.8 km/h
Wind: NNW 14.8 km/h
Temperatuur: 12°C
Dauwpunt: 12°C
Vochtigheid: 100%
Barometer: 1007 hPa
Bewolking: Overcast
Zicht: 5 km
Bewolking: Grotendeels bewolkt 300 ft,
Bewolking 500 ft
EHAM 192055Z 33008KT 310V010 5000 BR BKN003 OVC005 12/12 Q1007 BECMG 3500
EHEH - Eindhoven
Gewijzigd: 19-05-2019 23:10
Nevel, Bewolking  
Nevel, Bewolking  
   Wind: WNW 11.1 km/h
Wind: WNW 11.1 km/h
Temperatuur: 13°C
Dauwpunt: 12°C
Vochtigheid: 94%
Barometer: 1006 hPa
Bewolking: Overcast
Zicht: 3 km
Bewolking: Licht bewolkt 700 ft,
Grotendeels bewolkt 800 ft,
Bewolking 900 ft
EHEH 192110Z AUTO 30006KT 260V360 2600 R21/2700N BR FEW007 BKN008 OVC009 13/12 Q1006 YLO 32005KT 3500 -RA BR OVC007 BECMG OVC005
EHGR - Gilze/Rijen
Gewijzigd: 19-05-2019 22:55
Nevel, Bewolking  
Nevel, Bewolking  
   Wind: NW 13 km/h
Wind: NW 13 km/h
Temperatuur: 13°C
Dauwpunt: 12°C
Vochtigheid: 94%
Barometer: 1007 hPa
Bewolking: Overcast
Zicht: 3 km
Bewolking: Bewolking 500 ft
EHGR 192055Z AUTO 31007KT 270V010 3400 BR OVC005 13/12 Q1007 YLO
EHBK - Maastricht
Gewijzigd: 19-05-2019 22:55
Gedeeltelijk bewolkt  
Gedeeltelijk bewolkt  
   Wind: ZW 5.6 km/h
Wind: ZW 5.6 km/h
Temperatuur: 12°C
Dauwpunt: 11°C
Vochtigheid: 94%
Barometer: 1006 hPa
Bewolking: Partly Cloudy
Zicht: 7 km
Bewolking: Gedeeltelijk bewolkt ft
EHBK 192055Z AUTO 23003KT 170V310 7000 NSC 12/11 Q1006 BECMG 4000 BR
EHVK - Volkel
Gewijzigd: 19-05-2019 23:11
Nevel, Bewolking  
Nevel, Bewolking  
   Wind: Noorden 5.6 km/h
Wind: Noorden 5.6 km/h
Temperatuur: 14°C
Dauwpunt: 13°C
Vochtigheid: 94%
Barometer: 1006 hPa
Bewolking: Overcast
Zicht: 4 km
Bewolking: Bewolking 9700 ft
EHVK 192111Z AUTO 35003KT 300V360 3900 BR OVC097 14/13 Q1006 GRN
EHFS - Vlissingen
Gewijzigd: 19-05-2019 22:55
Nevel, Bewolking  
Nevel, Bewolking  
   Wind: Noorden 22.2 km/h
Wind: Noorden 22.2 km/h
Temperatuur: 11°C
Dauwpunt: 11°C
Vochtigheid: 100%
Barometer: 1008 hPa
Bewolking: Overcast
Zicht: 2 km
Bewolking: Bewolking 100 ft
EHFS 192055Z AUTO 01012KT 320V050 1700 BR OVC001/// 11/11 Q1008 W///H///

Script ontwikkeld door  Saratoga-weather.org Aangepast voor de template door  Weerstation Leuven

Apparatuur in gebruik:

Weerstation
Davis VP2

Weerprogramma
WeatherLink

Weercomputer
Sponsor

Webleverancier
My provider

Davis VP2

WeatherLink

Sponsor

My provider